createdAt,value
2019-05-18T00:00:43.397Z,97795.60
2019-05-18T00:03:12.152Z,97803.27
2019-05-18T00:05:40.999Z,97801.11
2019-05-18T00:08:09.872Z,97803.77
2019-05-18T00:10:38.638Z,97803.12
2019-05-18T00:13:07.485Z,97802.44
2019-05-18T00:15:36.240Z,97799.06
2019-05-18T00:18:05.172Z,97789.48
2019-05-18T00:20:34.002Z,97789.48
2019-05-18T00:23:02.859Z,97798.13
2019-05-18T00:25:31.970Z,97800.00
2019-05-18T00:28:00.767Z,97798.14
2019-05-18T00:30:29.635Z,97800.02
2019-05-18T00:32:58.367Z,97794.22
2019-05-18T00:35:27.136Z,97795.83
2019-05-18T00:37:55.858Z,97803.59
2019-05-18T00:40:24.612Z,97800.38
2019-05-18T00:42:53.379Z,97798.84
2019-05-18T00:45:22.232Z,97796.09
2019-05-18T00:47:51.002Z,97796.58
2019-05-18T00:50:20.103Z,97793.12
2019-05-18T00:52:48.945Z,97789.36
2019-05-18T00:55:17.665Z,97791.22
2019-05-18T00:57:46.438Z,97784.11
2019-05-18T01:00:15.646Z,97785.57
2019-05-18T01:02:44.454Z,97785.08
2019-05-18T01:05:13.474Z,97791.37
2019-05-18T01:07:42.319Z,97788.86
2019-05-18T01:10:11.522Z,97787.88
2019-05-18T01:12:40.276Z,97781.80
2019-05-18T01:15:09.679Z,97785.84
2019-05-18T01:17:38.529Z,97785.65
2019-05-18T01:20:08.382Z,97784.12
2019-05-18T01:22:37.174Z,97781.05
2019-05-18T01:25:06.622Z,97782.09
2019-05-18T01:27:35.403Z,97778.68
2019-05-18T01:30:05.317Z,97772.34
2019-05-18T01:32:34.095Z,97775.18
2019-05-18T01:35:02.935Z,97776.37
2019-05-18T01:37:31.746Z,97778.12
2019-05-18T01:40:00.689Z,97774.15
2019-05-18T01:42:29.825Z,97769.13
2019-05-18T01:44:58.597Z,97763.13
2019-05-18T01:47:27.358Z,97769.34
2019-05-18T01:49:56.111Z,97768.54
2019-05-18T01:52:24.866Z,97770.52
2019-05-18T01:54:53.600Z,97774.08
2019-05-18T01:57:22.347Z,97766.59
2019-05-18T01:59:51.100Z,97767.77
2019-05-18T02:02:19.887Z,97770.10
2019-05-18T02:04:48.623Z,97773.77
2019-05-18T02:07:17.358Z,97771.05
2019-05-18T02:09:46.115Z,97761.60
2019-05-18T02:12:15.104Z,97772.34
2019-05-18T02:14:43.956Z,97772.83
2019-05-18T02:17:12.682Z,97770.86
2019-05-18T02:19:41.689Z,97768.71
2019-05-18T02:22:10.516Z,97772.16
2019-05-18T02:24:39.454Z,97776.59
2019-05-18T02:27:08.185Z,97781.67
2019-05-18T02:29:36.944Z,97781.53
2019-05-18T02:32:05.748Z,97785.81
2019-05-18T02:34:34.552Z,97782.59
2019-05-18T02:37:03.573Z,97781.41
2019-05-18T02:39:32.360Z,97781.34
2019-05-18T02:42:01.168Z,97779.52
2019-05-18T02:44:30.278Z,97774.09
2019-05-18T02:46:59.030Z,97771.88
2019-05-18T02:49:27.777Z,97773.80
2019-05-18T02:51:56.540Z,97775.42
2019-05-18T02:54:25.347Z,97772.22
2019-05-18T02:56:54.078Z,97768.40
2019-05-18T02:59:22.948Z,97763.80
2019-05-18T03:01:51.699Z,97765.97
2019-05-18T03:04:20.474Z,97770.70
2019-05-18T03:06:49.304Z,97767.81
2019-05-18T03:09:18.054Z,97765.25
2019-05-18T03:11:47.262Z,97763.84
2019-05-18T03:14:16.363Z,97766.73
2019-05-18T03:16:45.140Z,97768.25
2019-05-18T03:19:13.964Z,97768.67
2019-05-18T03:21:42.690Z,97772.30
2019-05-18T03:24:11.442Z,97765.52
2019-05-18T03:26:40.180Z,97769.86
2019-05-18T03:29:09.413Z,97764.19
2019-05-18T03:31:38.141Z,97767.66
2019-05-18T03:34:06.970Z,97771.09
2019-05-18T03:36:35.824Z,97768.50
2019-05-18T03:39:05.729Z,97765.05
2019-05-18T03:41:34.568Z,97761.90
2019-05-18T03:44:03.416Z,97762.17
2019-05-18T03:46:32.239Z,97757.31
2019-05-18T03:49:00.977Z,97757.66
2019-05-18T03:51:29.753Z,97754.88
2019-05-18T03:53:58.494Z,97760.37
2019-05-18T03:56:27.218Z,97757.11
2019-05-18T03:58:56.426Z,97760.30
2019-05-18T04:01:25.152Z,97759.87
2019-05-18T04:03:53.881Z,97760.52
2019-05-18T04:06:22.692Z,97761.55
2019-05-18T04:08:51.601Z,97762.98
2019-05-18T04:11:20.328Z,97758.92
2019-05-18T04:13:49.086Z,97757.44
2019-05-18T04:16:17.882Z,97763.45
2019-05-18T04:18:46.642Z,97765.86
2019-05-18T04:21:16.761Z,97768.81
2019-05-18T04:23:45.494Z,97770.56
2019-05-18T04:26:14.269Z,97768.44
2019-05-18T04:28:43.055Z,97767.45
2019-05-18T04:31:11.815Z,97768.43
2019-05-18T04:33:40.556Z,97772.03
2019-05-18T04:36:09.601Z,97763.09
2019-05-18T04:38:38.359Z,97769.40
2019-05-18T04:41:07.169Z,97761.86
2019-05-18T04:43:35.927Z,97762.75
2019-05-18T04:46:04.752Z,97757.80
2019-05-18T04:48:33.509Z,97757.80
2019-05-18T04:51:02.227Z,97755.48
2019-05-18T04:53:30.986Z,97755.06
2019-05-18T04:55:59.879Z,97753.73
2019-05-18T04:58:28.619Z,97745.04
2019-05-18T05:00:57.356Z,97751.72
2019-05-18T05:03:26.138Z,97744.05
2019-05-18T05:05:54.926Z,97751.25
2019-05-18T05:08:23.676Z,97732.75
2019-05-18T05:10:52.504Z,97750.30
2019-05-18T05:13:21.218Z,97750.95
2019-05-18T05:15:50.052Z,97748.37
2019-05-18T05:18:18.858Z,97749.48
2019-05-18T05:20:47.969Z,97749.48
2019-05-18T05:23:16.978Z,97750.88
2019-05-18T05:25:45.716Z,97731.53
2019-05-18T05:28:14.590Z,97742.04
2019-05-18T05:30:43.518Z,97742.04
2019-05-18T05:33:12.251Z,97737.48
2019-05-18T05:35:41.132Z,97742.47
2019-05-18T05:38:09.974Z,97735.78
2019-05-18T05:40:39.584Z,97742.23
2019-05-18T05:43:08.345Z,97743.64
2019-05-18T05:45:37.236Z,97748.39
2019-05-18T05:48:06.069Z,97751.47
2019-05-18T05:50:36.567Z,97745.23
2019-05-18T05:53:05.674Z,97751.78
2019-05-18T05:55:34.524Z,97748.33
2019-05-18T05:58:03.340Z,97750.16
2019-05-18T06:00:32.123Z,97758.03
2019-05-18T06:03:00.851Z,97750.03
2019-05-18T06:05:29.708Z,97744.55
2019-05-18T06:07:59.756Z,97748.75
2019-05-18T06:10:28.592Z,97748.27
2019-05-18T06:12:57.326Z,97744.08
2019-05-18T06:15:26.260Z,97748.92
2019-05-18T06:17:58.251Z,97746.75
2019-05-18T06:20:27.057Z,97750.07
2019-05-18T06:22:56.069Z,97745.09
2019-05-18T06:25:24.826Z,97748.73
2019-05-18T06:27:53.700Z,97743.39
2019-05-18T06:30:22.785Z,97743.83
2019-05-18T06:32:51.586Z,97746.02
2019-05-18T06:35:21.667Z,97751.66
2019-05-18T06:37:50.470Z,97755.13
2019-05-18T06:40:19.332Z,97748.91
2019-05-18T06:42:48.060Z,97756.58
2019-05-18T06:45:17.053Z,97751.84
2019-05-18T06:47:48.342Z,97748.01
2019-05-18T06:50:19.375Z,97739.80
2019-05-18T06:52:48.719Z,97742.91
2019-05-18T06:55:17.828Z,97739.39
2019-05-18T06:57:47.241Z,97745.41
2019-05-18T07:00:17.402Z,97749.83
2019-05-18T07:02:46.432Z,97746.68
2019-05-18T07:05:15.409Z,97744.08
2019-05-18T07:07:44.327Z,97747.12
2019-05-18T07:10:13.912Z,97740.85
2019-05-18T07:12:42.731Z,97738.59
2019-05-18T07:15:12.028Z,97743.21
2019-05-18T07:17:40.748Z,97741.02
2019-05-18T07:20:09.923Z,97740.02
2019-05-18T07:22:38.661Z,97737.55
2019-05-18T07:25:08.371Z,97738.63
2019-05-18T07:27:37.189Z,97738.44
2019-05-18T07:30:06.439Z,97737.49
2019-05-18T07:32:35.342Z,97733.98
2019-05-18T07:35:04.476Z,97737.85
2019-05-18T07:37:33.281Z,97729.80
2019-05-18T07:40:02.347Z,97729.58
2019-05-18T07:42:31.180Z,97739.05
2019-05-18T07:45:00.069Z,97736.85
2019-05-18T07:47:29.215Z,97730.03
2019-05-18T07:49:58.008Z,97731.18
2019-05-18T07:52:29.320Z,97738.85
2019-05-18T07:54:58.037Z,97727.52
2019-05-18T07:57:26.956Z,97732.95
2019-05-18T07:59:55.756Z,97734.02
2019-05-18T08:02:24.574Z,97739.77
2019-05-18T08:04:53.436Z,97742.70
2019-05-18T08:07:28.038Z,97739.52
2019-05-18T08:09:56.850Z,97732.14
2019-05-18T08:12:25.625Z,97736.43
2019-05-18T08:14:54.513Z,97738.09
2019-05-18T08:17:24.873Z,97731.61
2019-05-18T08:20:04.800Z,97739.37
2019-05-18T08:22:38.086Z,97735.41
2019-05-18T08:25:07.547Z,97736.10
2019-05-18T08:27:37.299Z,97735.59
2019-05-18T08:30:12.761Z,97732.13
2019-05-18T08:32:42.485Z,97734.23
2019-05-18T08:35:11.419Z,97732.62
2019-05-18T08:37:45.262Z,97728.43
2019-05-18T08:40:15.626Z,97725.62
2019-05-18T08:42:47.256Z,97734.98
2019-05-18T08:45:21.811Z,97737.52
2019-05-18T08:47:52.473Z,97733.41
2019-05-18T08:50:21.312Z,97729.52
2019-05-18T08:52:50.609Z,97728.05
2019-05-18T08:55:19.924Z,97729.79
2019-05-18T08:57:49.111Z,97735.41
2019-05-18T09:00:19.181Z,97732.61
2019-05-18T09:02:53.955Z,97732.77
2019-05-18T09:05:27.047Z,97735.63
2019-05-18T09:08:01.451Z,97728.46
2019-05-18T09:10:35.821Z,97728.14
2019-05-18T09:13:10.826Z,97735.38
2019-05-18T09:15:48.077Z,97735.63
2019-05-18T09:18:17.472Z,97735.10
2019-05-18T09:20:47.032Z,97734.44
2019-05-18T09:23:19.148Z,97739.08
2019-05-18T09:25:50.466Z,97735.25
2019-05-18T09:28:19.985Z,97743.08
2019-05-18T09:30:51.427Z,97740.95
2019-05-18T09:33:24.552Z,97741.11
2019-05-18T09:35:56.537Z,97737.84
2019-05-18T09:38:36.899Z,97737.67
2019-05-18T09:41:06.916Z,97729.99
2019-05-18T09:43:37.668Z,97731.37
2019-05-18T09:46:07.649Z,97732.50
2019-05-18T09:48:45.496Z,97728.09
2019-05-18T09:51:16.790Z,97725.41
2019-05-18T09:53:51.659Z,97726.28
2019-05-18T09:56:21.555Z,97726.39
2019-05-18T09:58:51.162Z,97716.11
2019-05-18T10:01:23.274Z,97718.92
2019-05-18T10:04:01.428Z,97713.89
2019-05-18T10:06:31.591Z,97713.87
2019-05-18T10:09:05.657Z,97715.55
2019-05-18T10:11:38.891Z,97706.72
2019-05-18T10:14:12.458Z,97709.41
2019-05-18T10:16:43.096Z,97710.52
2019-05-18T10:19:16.041Z,97703.31
2019-05-18T10:21:46.348Z,97701.86
2019-05-18T10:24:17.042Z,97702.91
2019-05-18T10:26:47.846Z,97701.71
2019-05-18T10:29:17.182Z,97697.14
2019-05-18T10:31:51.484Z,97700.15
2019-05-18T10:34:21.326Z,97699.15
2019-05-18T10:36:54.369Z,97698.40
2019-05-18T10:39:25.313Z,97698.08
2019-05-18T10:41:55.154Z,97697.08
2019-05-18T10:44:25.029Z,97697.41
2019-05-18T10:46:56.814Z,97699.47
2019-05-18T10:49:26.751Z,97697.95
2019-05-18T10:51:55.665Z,97702.66
2019-05-18T10:54:24.815Z,97700.58
2019-05-18T10:56:53.599Z,97688.45
2019-05-18T10:59:22.436Z,97692.19
2019-05-18T11:01:51.289Z,97687.60
2019-05-18T11:04:20.120Z,97679.89
2019-05-18T11:06:49.007Z,97675.53
2019-05-18T11:09:17.928Z,97681.78
2019-05-18T11:11:46.938Z,97676.61
2019-05-18T11:14:18.712Z,97680.41
2019-05-18T11:16:46.192Z,97683.59
2019-05-18T11:19:14.997Z,97677.73
2019-05-18T11:21:43.821Z,97677.51
2019-05-18T11:24:12.650Z,97680.52
2019-05-18T11:26:41.405Z,97674.63
2019-05-18T11:29:10.327Z,97670.98
2019-05-18T11:31:39.318Z,97673.25
2019-05-18T11:34:08.316Z,97673.70
2019-05-18T11:36:37.158Z,97679.62
2019-05-18T11:39:07.297Z,97685.01
2019-05-18T11:41:36.247Z,97676.63
2019-05-18T11:44:05.402Z,97672.80
2019-05-18T11:46:34.178Z,97675.73
2019-05-18T11:49:02.977Z,97674.03
2019-05-18T11:51:31.970Z,97674.59
2019-05-18T11:54:00.840Z,97671.55
2019-05-18T11:56:29.934Z,97668.31
2019-05-18T11:58:59.016Z,97669.23
2019-05-18T12:01:28.504Z,97666.67
2019-05-18T12:03:57.335Z,97666.80
2019-05-18T12:06:26.124Z,97664.45
2019-05-18T12:08:58.483Z,97659.14
2019-05-18T12:11:25.473Z,97662.44
2019-05-18T12:13:54.268Z,97660.79
2019-05-18T12:16:23.183Z,97656.83
2019-05-18T12:18:52.041Z,97661.42
2019-05-18T12:21:21.039Z,97658.88
2019-05-18T12:23:49.878Z,97659.15
2019-05-18T12:26:18.708Z,97656.95
2019-05-18T12:28:47.619Z,97658.63
2019-05-18T12:31:17.686Z,97653.59
2019-05-18T12:33:46.993Z,97656.89
2019-05-18T12:36:15.987Z,97657.19
2019-05-18T12:38:44.875Z,97655.67
2019-05-18T12:41:14.788Z,97649.65
2019-05-18T12:46:12.522Z,97652.55
2019-05-18T12:48:41.296Z,97648.89
2019-05-18T12:51:10.365Z,97648.03
2019-05-18T12:53:39.220Z,97647.80
2019-05-18T12:56:08.179Z,97649.30
2019-05-18T12:58:37.711Z,97646.81
2019-05-18T13:01:06.693Z,97645.52
2019-05-18T13:03:35.609Z,97655.15
2019-05-18T13:06:04.827Z,97645.53
2019-05-18T13:08:33.625Z,97645.01
2019-05-18T13:11:02.501Z,97644.11
2019-05-18T13:13:31.375Z,97640.88
2019-05-18T13:16:00.243Z,97641.66
2019-05-18T13:18:29.064Z,97644.62
2019-05-18T13:20:57.902Z,97644.00
2019-05-18T13:23:26.692Z,97643.15
2019-05-18T13:25:55.614Z,97638.43
2019-05-18T13:28:24.396Z,97633.20
2019-05-18T13:30:53.214Z,97632.23
2019-05-18T13:33:22.120Z,97631.83
2019-05-18T13:35:50.978Z,97633.48
2019-05-18T13:38:19.719Z,97626.94
2019-05-18T13:40:48.755Z,97627.98
2019-05-18T13:43:17.663Z,97625.46
2019-05-18T13:45:46.476Z,97622.55
2019-05-18T13:48:15.422Z,97624.98
2019-05-18T13:50:44.983Z,97620.91
2019-05-18T13:53:13.675Z,97615.47
2019-05-18T13:55:42.561Z,97616.09
2019-05-18T13:58:11.596Z,97619.73
2019-05-18T14:00:40.462Z,97616.97
2019-05-18T14:03:09.553Z,97619.45
2019-05-18T14:05:38.401Z,97619.01
2019-05-18T14:08:07.294Z,97615.53
2019-05-18T14:10:36.168Z,97620.20
2019-05-18T14:13:05.009Z,97618.15
2019-05-18T14:15:33.831Z,97622.34
2019-05-18T14:18:02.608Z,97620.85
2019-05-18T14:20:31.353Z,97620.28
2019-05-18T14:23:00.540Z,97615.33
2019-05-18T14:25:29.293Z,97607.34
2019-05-18T14:27:58.279Z,97608.73
2019-05-18T14:30:27.347Z,97607.98
2019-05-18T14:32:56.104Z,97598.25
2019-05-18T14:35:25.085Z,97603.11
2019-05-18T14:37:54.159Z,97603.98
2019-05-18T14:40:23.068Z,97596.66
2019-05-18T14:42:51.811Z,97599.80
2019-05-18T14:45:20.754Z,97602.87
2019-05-18T14:47:49.790Z,97601.70
2019-05-18T14:50:19.454Z,97597.44
2019-05-18T14:52:48.580Z,97598.84
2019-05-18T14:55:31.385Z,97601.89
2019-05-18T14:57:49.583Z,97598.04
2019-05-18T15:00:18.988Z,97594.95
2019-05-18T15:02:47.795Z,97598.59
2019-05-18T15:05:17.272Z,97598.75
2019-05-18T15:07:46.029Z,97600.05
2019-05-18T15:10:15.324Z,97597.86
2019-05-18T15:12:44.175Z,97603.73
2019-05-18T15:15:14.200Z,97598.30
2019-05-18T15:17:43.176Z,97600.40
2019-05-18T15:20:12.331Z,97600.24
2019-05-18T15:22:41.113Z,97599.28
2019-05-18T15:25:10.835Z,97600.83
2019-05-18T15:27:39.732Z,97596.85
2019-05-18T15:30:09.297Z,97599.52
2019-05-18T15:32:38.293Z,97599.90
2019-05-18T15:35:09.033Z,97604.33
2019-05-18T15:37:38.020Z,97600.50
2019-05-18T15:40:07.620Z,97604.58
2019-05-18T15:42:36.664Z,97600.34
2019-05-18T15:45:05.868Z,97604.02
2019-05-18T15:47:34.625Z,97600.24
2019-05-18T15:50:03.514Z,97606.02
2019-05-18T15:52:32.364Z,97601.61
2019-05-18T15:55:01.188Z,97596.77
2019-05-18T15:57:30.055Z,97596.20
2019-05-18T15:59:59.015Z,97589.22
2019-05-18T16:02:27.849Z,97584.80
2019-05-18T16:04:56.859Z,97594.70
2019-05-18T16:07:25.698Z,97592.81
2019-05-18T16:09:54.541Z,97599.95
2019-05-18T16:12:23.289Z,97595.11
2019-05-18T16:14:52.165Z,97588.45
2019-05-18T16:17:20.994Z,97589.47
2019-05-18T16:19:49.841Z,97591.46
2019-05-18T16:22:18.606Z,97594.17
2019-05-18T16:24:47.430Z,97591.59
2019-05-18T16:27:16.535Z,97587.14
2019-05-18T16:29:45.357Z,97589.41
2019-05-18T16:32:14.099Z,97592.71
2019-05-18T16:34:43.391Z,97594.17
2019-05-18T16:37:12.263Z,97597.17
2019-05-18T16:39:41.255Z,97594.66
2019-05-18T16:42:10.016Z,97594.81
2019-05-18T16:44:38.830Z,97596.60
2019-05-18T16:47:07.608Z,97595.00
2019-05-18T16:49:36.930Z,97596.36
2019-05-18T16:52:06.046Z,97591.33
2019-05-18T16:54:34.950Z,97595.95
2019-05-18T16:57:04.058Z,97597.31
2019-05-18T16:59:32.995Z,97589.03
2019-05-18T17:02:01.703Z,97587.69
2019-05-18T17:04:30.538Z,97594.17
2019-05-18T17:06:59.496Z,97594.70
2019-05-18T17:09:28.360Z,97591.45
2019-05-18T17:11:57.269Z,97595.08
2019-05-18T17:14:26.339Z,97591.64
2019-05-18T17:16:55.584Z,97595.23
2019-05-18T17:19:24.536Z,97593.58
2019-05-18T17:21:53.298Z,97588.28
2019-05-18T17:24:22.086Z,97594.42
2019-05-18T17:26:53.292Z,97592.13
2019-05-18T17:29:22.039Z,97595.16
2019-05-18T17:31:51.027Z,97593.22
2019-05-18T17:34:19.880Z,97601.39
2019-05-18T17:36:52.552Z,97594.94
2019-05-18T17:39:19.372Z,97594.94
2019-05-18T17:41:48.383Z,97593.34
2019-05-18T17:44:17.271Z,97594.58
2019-05-18T17:46:46.126Z,97597.49
2019-05-18T17:49:26.349Z,97594.13
2019-05-18T17:51:45.961Z,97597.61
2019-05-18T17:54:14.752Z,97600.50
2019-05-18T17:56:43.551Z,97599.81
2019-05-18T17:59:12.673Z,97605.52
2019-05-18T18:01:41.501Z,97599.27
2019-05-18T18:04:10.323Z,97608.98
2019-05-18T18:06:39.186Z,97610.92
2019-05-18T18:09:10.961Z,97608.15
2019-05-18T18:11:40.709Z,97611.58
2019-05-18T18:14:09.668Z,97611.88
2019-05-18T18:16:38.700Z,97609.26
2019-05-18T18:19:07.568Z,97616.11
2019-05-18T18:21:36.451Z,97610.32
2019-05-18T18:24:05.519Z,97619.94
2019-05-18T18:26:35.966Z,97621.15
2019-05-18T18:29:05.042Z,97618.72
2019-05-18T18:31:33.931Z,97616.02
2019-05-18T18:34:02.713Z,97623.41
2019-05-18T18:36:31.587Z,97621.11
2019-05-18T18:39:00.401Z,97624.58
2019-05-18T18:41:29.276Z,97631.77
2019-05-18T18:43:58.125Z,97630.14
2019-05-18T18:46:27.120Z,97632.63
2019-05-18T18:48:55.918Z,97636.05
2019-05-18T18:51:24.785Z,97636.98
2019-05-18T18:53:53.853Z,97640.30
2019-05-18T18:56:22.615Z,97634.70
2019-05-18T18:58:51.445Z,97637.90
2019-05-18T19:01:20.292Z,97638.31
2019-05-18T19:03:49.153Z,97638.70
2019-05-18T19:06:18.097Z,97650.61
2019-05-18T19:08:46.910Z,97650.89
2019-05-18T19:11:16.208Z,97659.28
2019-05-18T19:13:45.828Z,97656.13
2019-05-18T19:16:14.943Z,97665.23
2019-05-18T19:18:43.883Z,97674.22
2019-05-18T19:21:12.737Z,97669.52
2019-05-18T19:23:41.489Z,97678.80
2019-05-18T19:26:10.704Z,97678.80
2019-05-18T19:28:39.780Z,97683.69
2019-05-18T19:31:08.693Z,97683.14
2019-05-18T19:33:37.763Z,97684.28
2019-05-18T19:36:07.021Z,97685.38
2019-05-18T19:38:35.994Z,97687.36
2019-05-18T19:41:04.962Z,97686.80
2019-05-18T19:43:33.933Z,97686.87
2019-05-18T19:46:02.878Z,97693.06
2019-05-18T19:48:31.790Z,97694.21
2019-05-18T19:51:00.681Z,97695.93
2019-05-18T19:53:29.458Z,97699.50
2019-05-18T19:55:58.426Z,97700.25
2019-05-18T19:58:27.576Z,97700.52
2019-05-18T20:00:56.409Z,97699.84
2019-05-18T20:03:25.283Z,97701.19
2019-05-18T20:05:54.100Z,97704.33
2019-05-18T20:08:22.869Z,97711.19
2019-05-18T20:10:51.673Z,97706.58
2019-05-18T20:13:20.437Z,97708.31
2019-05-18T20:15:49.186Z,97711.20
2019-05-18T20:18:17.936Z,97709.19
2019-05-18T20:20:46.710Z,97706.80
2019-05-18T20:23:15.561Z,97709.73
2019-05-18T20:25:44.325Z,97705.48
2019-05-18T20:28:23.284Z,97715.53
2019-05-18T20:30:43.638Z,97706.66
2019-05-18T20:33:12.376Z,97703.50
2019-05-18T20:35:41.294Z,97707.08
2019-05-18T20:38:10.292Z,97704.31
2019-05-18T20:40:39.044Z,97704.32
2019-05-18T20:43:07.814Z,97706.58
2019-05-18T20:45:37.730Z,97705.84
2019-05-18T20:48:06.491Z,97710.31
2019-05-18T20:50:35.212Z,97719.24
2019-05-18T20:53:03.959Z,97715.17
2019-05-18T20:55:32.804Z,97716.05
2019-05-18T20:58:01.739Z,97720.56
2019-05-18T21:00:30.559Z,97714.53
2019-05-18T21:02:59.585Z,97712.41
2019-05-18T21:05:28.444Z,97708.41
2019-05-18T21:07:57.213Z,97703.49
2019-05-18T21:10:25.954Z,97703.45
2019-05-18T21:12:54.714Z,97699.77
2019-05-18T21:15:24.829Z,97702.77
2019-05-18T21:17:53.683Z,97706.09
2019-05-18T21:20:22.415Z,97715.14
2019-05-18T21:22:51.175Z,97712.72
2019-05-18T21:25:19.997Z,97715.75
2019-05-18T21:27:48.788Z,97712.39
2019-05-18T21:30:17.783Z,97714.66
2019-05-18T21:32:46.592Z,97716.36
2019-05-18T21:35:15.540Z,97719.41
2019-05-18T21:37:44.384Z,97722.19
2019-05-18T21:40:13.380Z,97724.52
2019-05-18T21:42:42.277Z,97721.84
2019-05-18T21:45:12.343Z,97720.13
2019-05-18T21:47:41.106Z,97724.46
2019-05-18T21:50:10.352Z,97727.88
2019-05-18T21:52:41.823Z,97735.28
2019-05-18T21:55:10.309Z,97728.97
2019-05-18T21:57:39.072Z,97730.31
2019-05-18T22:00:09.673Z,97729.42
2019-05-18T22:02:38.743Z,97732.63
2019-05-18T22:05:08.028Z,97730.59
2019-05-18T22:07:36.872Z,97731.14
2019-05-18T22:10:06.266Z,97731.99
2019-05-18T22:12:35.182Z,97735.33
2019-05-18T22:15:04.110Z,97725.34
2019-05-18T22:17:35.244Z,97729.63
2019-05-18T22:20:04.380Z,97724.64
2019-05-18T22:22:33.394Z,97724.64
2019-05-18T22:25:02.202Z,97724.16
2019-05-18T22:27:31.267Z,97720.01
2019-05-18T22:30:00.127Z,97718.31
2019-05-18T22:32:28.988Z,97717.98
2019-05-18T22:34:57.747Z,97715.31
2019-05-18T22:37:26.508Z,97717.83
2019-05-18T22:39:55.271Z,97714.16
2019-05-18T22:42:24.805Z,97713.47
2019-05-18T22:44:53.555Z,97706.28
2019-05-18T22:47:22.414Z,97705.95
2019-05-18T22:49:51.328Z,97702.14
2019-05-18T22:52:20.121Z,97697.66
2019-05-18T22:54:48.999Z,97685.81
2019-05-18T22:57:17.745Z,97687.98
2019-05-18T22:59:46.480Z,97688.97
2019-05-18T23:02:15.262Z,97688.52
2019-05-18T23:04:44.249Z,97685.64
2019-05-18T23:07:13.244Z,97686.63
2019-05-18T23:09:42.085Z,97690.36
2019-05-18T23:12:10.996Z,97683.98
2019-05-18T23:14:39.846Z,97686.86
2019-05-18T23:17:08.756Z,97688.02
2019-05-18T23:19:37.524Z,97690.19
2019-05-18T23:22:06.495Z,97691.33
2019-05-18T23:24:35.464Z,97685.00
2019-05-18T23:27:04.291Z,97686.53
2019-05-18T23:29:33.026Z,97684.98
2019-05-18T23:32:01.862Z,97684.02
2019-05-18T23:34:30.637Z,97678.67
2019-05-18T23:36:59.472Z,97677.54
2019-05-18T23:39:28.276Z,97675.03
2019-05-18T23:41:57.643Z,97671.01
2019-05-18T23:44:26.404Z,97671.36
2019-05-18T23:46:55.158Z,97665.33
2019-05-18T23:49:23.930Z,97670.34
2019-05-18T23:51:52.700Z,97671.32
2019-05-18T23:54:21.461Z,97670.48
2019-05-18T23:56:50.196Z,97666.64
2019-05-18T23:59:18.944Z,97669.83
